createdAt,value
2022-12-18T00:01:32.669Z,99223.78
2022-12-18T00:04:03.477Z,99229.30
2022-12-18T00:06:33.736Z,99234.85
2022-12-18T00:09:02.930Z,99240.98
2022-12-18T00:11:32.060Z,99240.30
2022-12-18T00:14:00.981Z,99249.05
2022-12-18T00:16:31.269Z,99250.29
2022-12-18T00:19:01.136Z,99255.02
2022-12-18T00:21:30.871Z,99255.02
2022-12-18T00:24:00.572Z,99255.93
2022-12-18T00:26:31.392Z,99255.91
2022-12-18T00:29:03.175Z,99255.48
2022-12-18T00:31:32.294Z,99260.04
2022-12-18T00:34:02.707Z,99261.12
2022-12-18T00:36:34.310Z,99264.95
2022-12-18T00:39:04.876Z,99266.08
2022-12-18T00:41:51.869Z,99269.19
2022-12-18T00:44:20.027Z,99265.70
2022-12-18T00:46:48.873Z,99270.32
2022-12-18T00:49:19.132Z,99278.30
2022-12-18T00:51:48.649Z,99289.63
2022-12-18T00:54:17.523Z,99290.42
2022-12-18T00:56:49.024Z,99288.22
2022-12-18T00:59:19.018Z,99292.83
2022-12-18T01:01:47.624Z,99299.19
2022-12-18T01:04:16.393Z,99298.73
2022-12-18T01:06:46.867Z,99302.39
2022-12-18T01:09:15.084Z,99308.92
2022-12-18T01:11:42.970Z,99309.71
2022-12-18T01:14:12.611Z,99313.35
2022-12-18T01:16:40.824Z,99308.46
2022-12-18T01:19:08.783Z,99312.23
2022-12-18T01:21:36.653Z,99310.59
2022-12-18T01:24:07.301Z,99313.88
2022-12-18T01:26:35.244Z,99318.45
2022-12-18T01:29:04.185Z,99321.10
2022-12-18T01:31:35.138Z,99322.51
2022-12-18T01:34:06.140Z,99318.96
2022-12-18T01:36:39.976Z,99321.23
2022-12-18T01:39:12.331Z,99322.06
2022-12-18T01:42:01.979Z,99320.06
2022-12-18T01:44:57.266Z,99312.18
2022-12-18T01:47:37.935Z,99315.89
2022-12-18T01:50:16.879Z,99318.86
2022-12-18T01:52:48.829Z,99322.99
2022-12-18T01:55:19.799Z,99332.02
2022-12-18T01:57:49.225Z,99334.96
2022-12-18T02:00:21.343Z,99340.02
2022-12-18T02:02:49.517Z,99344.19
2022-12-18T02:05:23.840Z,99347.34
2022-12-18T02:07:51.928Z,99348.05
2022-12-18T02:10:30.154Z,99347.00
2022-12-18T02:13:10.969Z,99351.91
2022-12-18T02:15:49.143Z,99355.71
2022-12-18T02:18:46.432Z,99357.79
2022-12-18T02:21:47.167Z,99369.95
2022-12-18T02:24:26.483Z,99359.83
2022-12-18T02:27:00.480Z,99380.14
2022-12-18T02:29:50.524Z,99384.81
2022-12-18T02:32:32.706Z,99385.94
2022-12-18T02:35:05.680Z,99390.06
2022-12-18T02:37:36.195Z,99388.21
2022-12-18T02:40:06.422Z,99393.39
2022-12-18T02:42:34.795Z,99383.80
2022-12-18T02:45:03.504Z,99380.19
2022-12-18T02:47:39.421Z,99391.02
2022-12-18T02:50:10.652Z,99397.52
2022-12-18T02:53:30.380Z,99401.65
2022-12-18T02:56:15.921Z,99405.08
2022-12-18T02:58:59.014Z,99412.09
2022-12-18T03:02:12.360Z,99414.23
2022-12-18T03:05:03.850Z,99415.24
2022-12-18T03:07:47.145Z,99421.43
2022-12-18T03:10:21.354Z,99423.77
2022-12-18T03:12:55.669Z,99427.28
2022-12-18T03:15:30.112Z,99429.00
2022-12-18T03:18:08.855Z,99430.15
2022-12-18T03:20:40.878Z,99429.92
2022-12-18T03:23:14.135Z,99433.69
2022-12-18T03:25:44.867Z,99434.77
2022-12-18T03:28:20.777Z,99432.83
2022-12-18T03:31:00.654Z,99433.34
2022-12-18T03:33:39.477Z,99431.52
2022-12-18T03:36:08.157Z,99436.14
2022-12-18T03:38:36.280Z,99440.77
2022-12-18T03:41:16.692Z,99442.80
2022-12-18T03:44:12.613Z,99439.60
2022-12-18T03:46:56.136Z,99443.05
2022-12-18T03:49:41.152Z,99446.31
2022-12-18T03:52:19.077Z,99448.23
2022-12-18T03:54:47.972Z,99455.73
2022-12-18T03:57:20.712Z,99454.52
2022-12-18T03:59:54.077Z,99452.14
2022-12-18T04:02:24.911Z,99456.77
2022-12-18T04:04:57.956Z,99463.02
2022-12-18T04:07:26.386Z,99467.35
2022-12-18T04:09:57.706Z,99468.95
2022-12-18T04:12:27.327Z,99471.44
2022-12-18T04:14:55.481Z,99470.70
2022-12-18T04:17:24.845Z,99473.33
2022-12-18T04:19:53.109Z,99480.15
2022-12-18T04:22:21.965Z,99481.34
2022-12-18T04:24:53.489Z,99486.60
2022-12-18T04:27:29.400Z,99491.67
2022-12-18T04:30:00.637Z,99497.85
2022-12-18T04:32:28.632Z,99495.62
2022-12-18T04:34:56.592Z,99499.98
2022-12-18T04:37:24.858Z,99505.37
2022-12-18T04:39:52.985Z,99509.49
2022-12-18T04:42:26.931Z,99511.82
2022-12-18T04:44:54.817Z,99515.66
2022-12-18T04:47:47.972Z,99522.11
2022-12-18T04:50:15.933Z,99527.27
2022-12-18T04:52:44.079Z,99528.04
2022-12-18T04:55:11.980Z,99533.40
2022-12-18T04:57:39.909Z,99530.80
2022-12-18T05:00:08.838Z,99538.57
2022-12-18T05:02:36.879Z,99542.38
2022-12-18T05:05:05.565Z,99545.02
2022-12-18T05:07:33.482Z,99545.86
2022-12-18T05:10:01.708Z,99548.19
2022-12-18T05:12:32.326Z,99545.88
2022-12-18T05:15:00.413Z,99549.25
2022-12-18T05:17:28.400Z,99545.84
2022-12-18T05:19:56.315Z,99545.05
2022-12-18T05:22:24.239Z,99542.52
2022-12-18T05:24:52.168Z,99544.95
2022-12-18T05:27:21.672Z,99548.94
2022-12-18T05:29:49.638Z,99553.90
2022-12-18T05:32:23.203Z,99559.94
2022-12-18T05:34:51.221Z,99561.90
2022-12-18T05:37:19.256Z,99563.93
2022-12-18T05:39:47.162Z,99570.91
2022-12-18T05:42:15.416Z,99565.69
2022-12-18T05:44:44.713Z,99567.55
2022-12-18T05:47:12.571Z,99569.20
2022-12-18T05:49:40.723Z,99571.27
2022-12-18T05:52:08.777Z,99575.53
2022-12-18T05:54:36.701Z,99577.33
2022-12-18T05:57:04.653Z,99579.27
2022-12-18T05:59:32.648Z,99577.31
2022-12-18T06:02:00.702Z,99577.08
2022-12-18T06:04:32.113Z,99582.38
2022-12-18T06:07:00.330Z,99584.79
2022-12-18T06:09:29.937Z,99585.56
2022-12-18T06:11:57.900Z,99590.90
2022-12-18T06:14:25.861Z,99597.01
2022-12-18T06:16:53.880Z,99600.06
2022-12-18T06:19:21.899Z,99602.91
2022-12-18T06:21:51.310Z,99603.72
2022-12-18T06:24:19.207Z,99605.85
2022-12-18T06:26:47.105Z,99604.84
2022-12-18T06:29:15.212Z,99611.83
2022-12-18T06:31:43.137Z,99614.54
2022-12-18T06:34:11.828Z,99617.76
2022-12-18T06:36:39.793Z,99621.27
2022-12-18T06:39:07.844Z,99627.17
2022-12-18T06:41:37.168Z,99629.78
2022-12-18T06:44:05.116Z,99631.86
2022-12-18T06:46:33.337Z,99628.83
2022-12-18T06:49:01.315Z,99636.50
2022-12-18T06:51:29.425Z,99634.80
2022-12-18T06:53:57.422Z,99640.48
2022-12-18T06:56:25.319Z,99642.00
2022-12-18T06:58:53.608Z,99645.00
2022-12-18T07:01:22.292Z,99646.17
2022-12-18T07:03:57.951Z,99652.96
2022-12-18T07:06:26.690Z,99655.85
2022-12-18T07:08:55.148Z,99662.01
2022-12-18T07:11:23.226Z,99666.77
2022-12-18T07:13:51.197Z,99672.29
2022-12-18T07:16:25.192Z,99668.56
2022-12-18T07:18:56.541Z,99672.00
2022-12-18T07:21:25.522Z,99675.66
2022-12-18T07:23:53.425Z,99679.45
2022-12-18T07:26:22.837Z,99685.52
2022-12-18T07:28:51.417Z,99692.96
2022-12-18T07:31:22.242Z,99692.90
2022-12-18T07:33:51.984Z,99696.36
2022-12-18T07:36:20.935Z,99703.86
2022-12-18T07:38:50.249Z,99706.77
2022-12-18T07:41:18.196Z,99713.60
2022-12-18T07:43:46.697Z,99713.55
2022-12-18T07:46:16.731Z,99718.41
2022-12-18T07:48:49.437Z,99715.65
2022-12-18T07:51:19.692Z,99718.02
2022-12-18T07:53:49.439Z,99722.71
2022-12-18T07:56:30.485Z,99719.36
2022-12-18T07:59:00.419Z,99714.89
2022-12-18T08:01:28.850Z,99713.70
2022-12-18T08:03:58.703Z,99711.91
2022-12-18T08:06:26.785Z,99716.60
2022-12-18T08:08:56.753Z,99712.45
2022-12-18T08:11:26.885Z,99709.38
2022-12-18T08:13:55.192Z,99711.11
2022-12-18T08:16:25.044Z,99717.15
2022-12-18T08:18:54.870Z,99720.23
2022-12-18T08:21:29.351Z,99719.88
2022-12-18T08:24:00.143Z,99720.67
2022-12-18T08:26:30.466Z,99725.81
2022-12-18T08:28:59.847Z,99729.21
2022-12-18T08:31:29.766Z,99729.09
2022-12-18T08:33:58.315Z,99732.48
2022-12-18T08:36:26.503Z,99728.73
2022-12-18T08:38:55.508Z,99728.01
2022-12-18T08:41:23.680Z,99731.19
2022-12-18T08:44:10.667Z,99728.67
2022-12-18T08:46:40.932Z,99733.04
2022-12-18T08:49:10.580Z,99735.48
2022-12-18T08:51:39.742Z,99743.25
2022-12-18T08:54:08.131Z,99748.38
2022-12-18T08:56:36.141Z,99752.71
2022-12-18T08:59:05.457Z,99753.38
2022-12-18T09:01:33.627Z,99762.30
2022-12-18T09:04:02.030Z,99767.30
2022-12-18T09:06:29.970Z,99769.65
2022-12-18T09:08:58.456Z,99772.73
2022-12-18T09:11:29.598Z,99774.02
2022-12-18T09:13:59.192Z,99773.23
2022-12-18T09:16:32.380Z,99767.88
2022-12-18T09:19:01.618Z,99771.44
2022-12-18T09:21:35.803Z,99770.54
2022-12-18T09:24:08.017Z,99774.14
2022-12-18T09:26:37.731Z,99771.85
2022-12-18T09:29:08.308Z,99777.39
2022-12-18T09:31:37.174Z,99781.63
2022-12-18T09:34:05.199Z,99783.63
2022-12-18T09:36:33.273Z,99778.88
2022-12-18T09:39:06.289Z,99782.38
2022-12-18T09:41:41.977Z,99776.33
2022-12-18T09:44:33.971Z,99775.48
2022-12-18T09:47:19.056Z,99771.11
2022-12-18T09:49:50.734Z,99780.27
2022-12-18T09:52:42.298Z,99781.58
2022-12-18T09:55:36.486Z,99780.95
2022-12-18T09:58:19.929Z,99784.11
2022-12-18T10:00:47.856Z,99790.84
2022-12-18T10:03:17.297Z,99794.25
2022-12-18T10:05:52.116Z,99798.08
2022-12-18T10:08:25.911Z,99796.30
2022-12-18T10:10:58.523Z,99795.52
2022-12-18T10:13:36.104Z,99794.70
2022-12-18T10:16:16.557Z,99792.73
2022-12-18T10:19:22.451Z,99792.53
2022-12-18T10:22:03.816Z,99788.89
2022-12-18T10:25:00.400Z,99783.02
2022-12-18T10:27:29.675Z,99788.49
2022-12-18T10:29:59.043Z,99784.80
2022-12-18T10:32:30.388Z,99784.11
2022-12-18T10:35:00.791Z,99780.94
2022-12-18T10:37:30.931Z,99779.91
2022-12-18T10:40:15.476Z,99780.40
2022-12-18T10:43:04.220Z,99774.92
2022-12-18T10:45:32.275Z,99778.75
2022-12-18T10:48:00.238Z,99774.66
2022-12-18T10:51:09.099Z,99771.48
2022-12-18T10:53:28.698Z,99769.44
2022-12-18T10:55:59.842Z,99764.75
2022-12-18T10:58:32.578Z,99763.56
2022-12-18T11:01:08.173Z,99759.80
2022-12-18T11:03:42.494Z,99758.75
2022-12-18T11:06:19.829Z,99758.38
2022-12-18T11:09:19.948Z,99751.67
2022-12-18T11:11:53.474Z,99750.06
2022-12-18T11:14:27.710Z,99749.15
2022-12-18T11:17:24.440Z,99746.39
2022-12-18T11:19:45.221Z,99746.11
2022-12-18T11:22:27.636Z,99739.56
2022-12-18T11:25:35.788Z,99735.70
2022-12-18T11:28:05.750Z,99738.02
2022-12-18T11:30:36.070Z,99733.90
2022-12-18T11:33:31.124Z,99737.83
2022-12-18T11:36:04.813Z,99731.39
2022-12-18T11:38:40.388Z,99733.52
2022-12-18T11:41:17.876Z,99733.13
2022-12-18T11:43:56.873Z,99730.71
2022-12-18T11:46:32.050Z,99732.71
2022-12-18T11:49:07.304Z,99731.89
2022-12-18T11:52:25.403Z,99735.23
2022-12-18T11:54:56.670Z,99733.82
2022-12-18T11:57:35.976Z,99736.30
2022-12-18T12:00:36.620Z,99735.97
2022-12-18T12:03:04.524Z,99738.73
2022-12-18T12:05:37.762Z,99740.48
2022-12-18T12:08:08.764Z,99745.52
2022-12-18T12:11:08.665Z,99743.55
2022-12-18T12:13:58.441Z,99735.36
2022-12-18T12:16:34.638Z,99737.97
2022-12-18T12:19:20.763Z,99743.63
2022-12-18T12:22:05.076Z,99739.02
2022-12-18T12:25:09.335Z,99739.36
2022-12-18T12:28:08.184Z,99740.08
2022-12-18T12:30:45.188Z,99745.81
2022-12-18T12:33:34.830Z,99748.31
2022-12-18T12:36:27.079Z,99750.10
2022-12-18T12:39:06.463Z,99759.31
2022-12-18T12:41:55.303Z,99764.38
2022-12-18T12:44:28.605Z,99770.74
2022-12-18T12:47:01.114Z,99773.20
2022-12-18T12:52:35.943Z,99773.57
2022-12-18T12:55:14.441Z,99771.66
2022-12-18T12:57:47.416Z,99769.95
2022-12-18T13:00:25.299Z,99773.10
2022-12-18T13:03:05.378Z,99777.10
2022-12-18T13:05:55.047Z,99780.80
2022-12-18T13:08:25.430Z,99783.66
2022-12-18T13:11:17.109Z,99789.56
2022-12-18T13:13:43.500Z,99777.10
2022-12-18T13:13:56.656Z,99787.70
2022-12-18T13:16:26.815Z,99787.91
2022-12-18T13:18:59.900Z,99785.93
2022-12-18T13:21:32.061Z,99785.60
2022-12-18T13:24:32.559Z,99785.88
2022-12-18T13:27:00.524Z,99786.27
2022-12-18T13:29:43.176Z,99784.51
2022-12-18T13:32:22.948Z,99789.14
2022-12-18T13:35:23.070Z,99788.38
2022-12-18T13:37:54.358Z,99792.65
2022-12-18T13:40:41.643Z,99793.39
2022-12-18T13:43:18.670Z,99802.60
2022-12-18T13:46:02.895Z,99801.87
2022-12-18T13:48:36.615Z,99802.02
2022-12-18T13:51:08.069Z,99807.00
2022-12-18T13:53:58.571Z,99804.74
2022-12-18T13:56:30.877Z,99802.05
2022-12-18T13:59:34.892Z,99806.91
2022-12-18T14:02:17.978Z,99810.95
2022-12-18T14:04:48.059Z,99813.60
2022-12-18T14:07:17.867Z,99814.82
2022-12-18T14:09:55.645Z,99812.79
2022-12-18T14:12:54.706Z,99815.66
2022-12-18T14:15:35.126Z,99818.02
2022-12-18T14:18:24.532Z,99820.52
2022-12-18T14:20:55.854Z,99821.31
2022-12-18T14:23:42.292Z,99829.09
2022-12-18T14:26:46.520Z,99830.83
2022-12-18T14:29:28.913Z,99831.66
2022-12-18T14:32:17.890Z,99832.71
2022-12-18T14:34:50.650Z,99825.82
2022-12-18T14:37:23.599Z,99824.60
2022-12-18T14:40:10.520Z,99823.61
2022-12-18T14:42:39.159Z,99825.09
2022-12-18T14:45:44.363Z,99827.84
2022-12-18T14:48:12.564Z,99831.35
2022-12-18T14:50:42.025Z,99833.13
2022-12-18T14:53:34.004Z,99831.60
2022-12-18T14:56:14.849Z,99832.02
2022-12-18T14:58:53.289Z,99833.95
2022-12-18T15:01:35.289Z,99832.77
2022-12-18T15:04:04.778Z,99834.45
2022-12-18T15:06:38.284Z,99839.33
2022-12-18T15:09:25.238Z,99840.88
2022-12-18T15:12:01.408Z,99844.49
2022-12-18T15:14:39.818Z,99849.94
2022-12-18T15:17:19.074Z,99856.52
2022-12-18T15:19:49.196Z,99861.53
2022-12-18T15:22:30.716Z,99859.23
2022-12-18T15:25:04.202Z,99863.45
2022-12-18T15:27:38.972Z,99862.33
2022-12-18T15:30:09.979Z,99864.96
2022-12-18T15:32:39.476Z,99867.55
2022-12-18T15:35:15.785Z,99869.52
2022-12-18T15:37:44.738Z,99869.08
2022-12-18T15:40:20.171Z,99871.77
2022-12-18T15:43:07.782Z,99873.44
2022-12-18T15:45:36.937Z,99876.27
2022-12-18T15:48:22.003Z,99871.67
2022-12-18T15:50:55.282Z,99870.69
2022-12-18T15:53:24.745Z,99869.91
2022-12-18T15:56:11.198Z,99869.19
2022-12-18T15:58:40.521Z,99875.18
2022-12-18T16:01:10.523Z,99887.16
2022-12-18T16:03:39.102Z,99891.50
2022-12-18T16:06:10.350Z,99892.78
2022-12-18T16:08:38.348Z,99894.88
2022-12-18T16:11:39.407Z,99895.31
2022-12-18T16:14:21.553Z,99903.77
2022-12-18T16:16:53.689Z,99899.33
2022-12-18T16:19:22.678Z,99891.02
2022-12-18T16:21:53.202Z,99894.20
2022-12-18T16:24:30.480Z,99896.86
2022-12-18T16:27:24.618Z,99898.22
2022-12-18T16:29:52.537Z,99899.36
2022-12-18T16:32:24.541Z,99906.46
2022-12-18T16:34:52.753Z,99913.58
2022-12-18T16:37:20.800Z,99916.61
2022-12-18T16:39:48.778Z,99916.93
2022-12-18T16:42:45.301Z,99921.45
2022-12-18T16:45:16.405Z,99919.56
2022-12-18T16:47:44.881Z,99921.29
2022-12-18T16:50:13.165Z,99920.12
2022-12-18T16:52:44.041Z,99925.30
2022-12-18T16:55:12.030Z,99926.06
2022-12-18T16:57:40.011Z,99922.33
2022-12-18T17:00:09.813Z,99916.34
2022-12-18T17:02:37.959Z,99911.09
2022-12-18T17:05:06.424Z,99905.38
2022-12-18T17:07:34.511Z,99907.52
2022-12-18T17:10:06.733Z,99907.08
2022-12-18T17:12:34.737Z,99905.98
2022-12-18T17:15:03.252Z,99898.36
2022-12-18T17:17:31.294Z,99892.42
2022-12-18T17:19:59.641Z,99883.50
2022-12-18T17:22:28.205Z,99878.42
2022-12-18T17:24:56.456Z,99869.42
2022-12-18T17:27:24.396Z,99865.88
2022-12-18T17:29:52.322Z,99857.44
2022-12-18T17:32:20.223Z,99853.23
2022-12-18T17:34:48.486Z,99846.88
2022-12-18T17:37:16.513Z,99845.22
2022-12-18T17:39:44.605Z,99845.27
2022-12-18T17:42:15.317Z,99850.98
2022-12-18T17:44:44.376Z,99851.34
2022-12-18T17:47:15.354Z,99854.69
2022-12-18T17:49:43.283Z,99857.45
2022-12-18T17:52:11.458Z,99856.42
2022-12-18T17:54:42.055Z,99851.48
2022-12-18T17:57:12.120Z,99857.73
2022-12-18T17:59:43.711Z,99856.61
2022-12-18T18:02:12.300Z,99862.88
2022-12-18T18:04:40.609Z,99869.70
2022-12-18T18:07:17.971Z,99876.66
2022-12-18T18:09:46.321Z,99881.26
2022-12-18T18:12:32.627Z,99884.09
2022-12-18T18:15:00.588Z,99878.28
2022-12-18T18:17:28.970Z,99876.58
2022-12-18T18:19:58.939Z,99878.42
2022-12-18T18:22:27.141Z,99885.73
2022-12-18T18:24:55.490Z,99881.95
2022-12-18T18:27:23.644Z,99879.47
2022-12-18T18:29:51.768Z,99865.84
2022-12-18T18:32:19.750Z,99876.80
2022-12-18T18:34:49.816Z,99872.50
2022-12-18T18:37:18.105Z,99876.52
2022-12-18T18:39:46.171Z,99882.92
2022-12-18T18:42:14.947Z,99885.02
2022-12-18T18:44:48.604Z,99881.40
2022-12-18T18:47:24.186Z,99877.82
2022-12-18T18:49:52.203Z,99875.17
2022-12-18T18:52:20.193Z,99873.86
2022-12-18T18:55:11.787Z,99879.61
2022-12-18T18:57:37.341Z,99884.34
2022-12-18T19:00:09.956Z,99888.52
2022-12-18T19:02:52.163Z,99891.84
2022-12-18T19:05:33.140Z,99897.76
2022-12-18T19:08:01.303Z,99899.59
2022-12-18T19:10:29.887Z,99895.31
2022-12-18T19:13:17.512Z,99895.80
2022-12-18T19:15:46.069Z,99901.17
2022-12-18T19:18:14.932Z,99901.31
2022-12-18T19:20:43.122Z,99904.74
2022-12-18T19:23:11.066Z,99901.30
2022-12-18T19:25:42.698Z,99906.60
2022-12-18T19:28:19.282Z,99906.95
2022-12-18T19:30:55.374Z,99914.92
2022-12-18T19:33:45.207Z,99914.68
2022-12-18T19:36:23.016Z,99918.80
2022-12-18T19:38:53.567Z,99913.90
2022-12-18T19:41:25.638Z,99925.34
2022-12-18T19:43:55.592Z,99923.52
2022-12-18T19:46:24.599Z,99916.75
2022-12-18T19:48:54.900Z,99910.90
2022-12-18T19:51:29.856Z,99905.68
2022-12-18T19:54:01.635Z,99906.41
2022-12-18T19:56:35.087Z,99915.85
2022-12-18T19:59:04.945Z,99918.54
2022-12-18T20:01:35.962Z,99918.58
2022-12-18T20:04:04.464Z,99913.12
2022-12-18T20:06:53.389Z,99919.70
2022-12-18T20:09:24.904Z,99928.54
2022-12-18T20:11:56.124Z,99933.48
2022-12-18T20:14:24.177Z,99933.28
2022-12-18T20:16:53.765Z,99928.15
2022-12-18T20:19:22.687Z,99917.80
2022-12-18T20:21:51.240Z,99912.77
2022-12-18T20:24:21.926Z,99903.70
2022-12-18T20:26:49.988Z,99900.27
2022-12-18T20:29:20.689Z,99901.66
2022-12-18T20:31:48.720Z,99904.34
2022-12-18T20:34:16.978Z,99902.19
2022-12-18T20:36:49.261Z,99895.61
2022-12-18T20:39:17.995Z,99895.33
2022-12-18T20:41:47.266Z,99894.97
2022-12-18T20:44:22.372Z,99895.30
2022-12-18T20:47:03.358Z,99896.78
2022-12-18T20:49:36.490Z,99895.25
2022-12-18T20:52:06.177Z,99894.54
2022-12-18T20:54:34.140Z,99892.11
2022-12-18T20:57:03.839Z,99885.66
2022-12-18T20:59:31.808Z,99885.70
2022-12-18T21:01:59.960Z,99886.30
2022-12-18T21:04:31.100Z,99875.65
2022-12-18T21:07:02.645Z,99870.06
2022-12-18T21:09:37.610Z,99862.23
2022-12-18T21:12:42.550Z,99859.94
2022-12-18T21:15:22.847Z,99853.94
2022-12-18T21:17:54.891Z,99853.40
2022-12-18T21:20:23.093Z,99854.59
2022-12-18T21:22:51.535Z,99852.55
2022-12-18T21:25:21.910Z,99851.67
2022-12-18T21:27:49.929Z,99854.48
2022-12-18T21:30:18.002Z,99850.17
2022-12-18T21:32:46.074Z,99851.23
2022-12-18T21:35:14.132Z,99855.77
2022-12-18T21:37:42.133Z,99854.61
2022-12-18T21:40:10.664Z,99852.62
2022-12-18T21:42:57.454Z,99855.98
2022-12-18T21:45:25.538Z,99851.65
2022-12-18T21:47:53.488Z,99855.92
2022-12-18T21:50:21.478Z,99861.23
2022-12-18T21:52:49.495Z,99863.04
2022-12-18T21:55:17.470Z,99867.94
2022-12-18T21:57:45.528Z,99867.11
2022-12-18T22:00:17.461Z,99871.65
2022-12-18T22:02:49.138Z,99875.46
2022-12-18T22:05:37.151Z,99880.67
2022-12-18T22:08:06.942Z,99875.08
2022-12-18T22:10:36.025Z,99865.54
2022-12-18T22:13:05.777Z,99863.71
2022-12-18T22:15:33.964Z,99868.62
2022-12-18T22:18:02.079Z,99864.36
2022-12-18T22:20:30.254Z,99853.61
2022-12-18T22:22:59.504Z,99850.20
2022-12-18T22:25:30.801Z,99854.20
2022-12-18T22:28:17.081Z,99850.90
2022-12-18T22:30:45.072Z,99843.40
2022-12-18T22:33:13.105Z,99842.63
2022-12-18T22:36:07.572Z,99845.80
2022-12-18T22:38:35.549Z,99849.41
2022-12-18T22:41:03.510Z,99848.32
2022-12-18T22:43:31.448Z,99850.67
2022-12-18T22:46:03.142Z,99849.48
2022-12-18T22:48:31.105Z,99847.74
2022-12-18T22:50:59.707Z,99845.39
2022-12-18T22:53:27.786Z,99846.14
2022-12-18T22:56:03.636Z,99847.79
2022-12-18T22:58:31.622Z,99852.27
2022-12-18T23:00:59.557Z,99855.13
2022-12-18T23:03:28.188Z,99853.03
2022-12-18T23:06:03.383Z,99852.05
2022-12-18T23:08:31.883Z,99847.50
2022-12-18T23:11:00.574Z,99854.31
2022-12-18T23:13:29.056Z,99859.70
2022-12-18T23:15:57.044Z,99860.55
2022-12-18T23:18:25.188Z,99858.67
2022-12-18T23:20:53.071Z,99863.09
2022-12-18T23:23:21.109Z,99859.66
2022-12-18T23:25:49.022Z,99859.66
2022-12-18T23:28:16.932Z,99858.86
2022-12-18T23:30:44.827Z,99865.30
2022-12-18T23:33:12.726Z,99869.54
2022-12-18T23:35:40.839Z,99863.38
2022-12-18T23:38:08.830Z,99860.23
2022-12-18T23:40:37.872Z,99856.23
2022-12-18T23:43:05.939Z,99853.06
2022-12-18T23:45:37.691Z,99852.92
2022-12-18T23:48:05.728Z,99850.16
2022-12-18T23:50:35.725Z,99851.89
2022-12-18T23:53:05.580Z,99849.55
2022-12-18T23:55:39.520Z,99853.45
2022-12-18T23:58:14.981Z,99853.19
